SBBR/BSB METAR and TAF weather

Enter ICAO airport designator
Station Type Date Time Source
SBBR METAR 2024/02/21 00:00 UTC NOAA

SBBR 210000Z 34004KT 9999 FEW020 SCT040 FEW045TCU BKN100 21/20 Q1015


Station Type Date Time Source
SBBR Decoded METAR 2024/02/21 00:00 UTC NOAA

Brasilia Aeroporto , Brazil (SBBR) 15-52S 047-56W 1061M
Feb 20, 2024 - 07:00 PM EST / 2024.02.21 0000 UTC
Wind: from the NNW (340 degrees) at 5 MPH (4 KT):0
Visibility: greater than 7 mile(s):0
Sky conditions: mostly cloudy
Weather: Towering cumulus clouds observed
Temperature: 69 F (21 C)
Dew Point: 68 F (20 C)
Relative Humidity: 94%
Pressure (altimeter): 29.97 in. Hg (1015 hPa)
ob: SBBR 210000Z 34004KT 9999 FEW020 SCT040 FEW045TCU BKN100 21/20 Q1015
cycle: 0

Station Type Date Time Source
SBBR TAF 2024/02/21 00:00 UTC NOAA

TAF SBBR 201900Z 2100/2124 31007KT 9999 SCT013 TN20/2109Z TX26/2118Z
BECMG 2103/2105 BKN010
TEMPO 2105/2112 6000 RA BKN008
BECMG 2112/2114 BKN020
TEMPO 2114/2118 VCSH BKN020 FEW030TCU
TEMPO 2118/2121 8000 TSRA SCT010 BKN025 FEW040CB
RMK PGF

Example: see airport list